sensor_id;sensor_type;location;lat;lon;timestamp;temperature;humidity
37896;DHT22;23733;53.254;10.430;2023-07-31T01:29:46;17.00;99.90
37896;DHT22;23733;53.254;10.430;2023-07-31T01:32:13;15.60;99.90
37896;DHT22;23733;53.254;10.430;2023-07-31T01:34:41;15.60;99.90
37896;DHT22;23733;53.254;10.430;2023-07-31T01:37:07;15.50;99.90
37896;DHT22;23733;53.254;10.430;2023-07-31T03:04:58;15.50;99.90
37896;DHT22;23733;53.254;10.430;2023-07-31T03:07:24;15.40;99.90
37896;DHT22;23733;53.254;10.430;2023-07-31T03:09:50;15.40;99.90
37896;DHT22;23733;53.254;10.430;2023-07-31T03:12:16;15.40;99.90
37896;DHT22;23733;53.254;10.430;2023-07-31T03:14:43;15.30;99.90
37896;DHT22;23733;53.254;10.430;2023-07-31T03:17:09;15.40;99.90
37896;DHT22;23733;53.254;10.430;2023-07-31T03:19:35;15.30;99.90
37896;DHT22;23733;53.254;10.430;2023-07-31T03:22:00;15.40;99.90
37896;DHT22;23733;53.254;10.430;2023-07-31T03:24:28;15.40;99.90
37896;DHT22;23733;53.254;10.430;2023-07-31T03:26:54;15.40;99.90
37896;DHT22;23733;53.254;10.430;2023-07-31T03:29:20;15.40;99.90
37896;DHT22;23733;53.254;10.430;2023-07-31T03:31:46;15.40;99.90
37896;DHT22;23733;53.254;10.430;2023-07-31T03:34:12;15.40;99.90
37896;DHT22;23733;53.254;10.430;2023-07-31T03:36:38;15.40;99.90
37896;DHT22;23733;53.254;10.430;2023-07-31T03:39:04;15.40;99.90
37896;DHT22;23733;53.254;10.430;2023-07-31T03:41:30;15.40;99.90
37896;DHT22;23733;53.254;10.430;2023-07-31T03:43:56;15.40;99.90
37896;DHT22;23733;53.254;10.430;2023-07-31T04:25:26;15.40;99.90
37896;DHT22;23733;53.254;10.430;2023-07-31T09:18:24;15.40;99.90
37896;DHT22;23733;53.254;10.430;2023-07-31T09:21:09;16.60;99.90
37896;DHT22;23733;53.254;10.430;2023-07-31T09:23:46;16.60;99.90
37896;DHT22;23733;53.254;10.430;2023-07-31T09:26:33;16.60;99.90
37896;DHT22;23733;53.254;10.430;2023-07-31T09:29:00;16.70;99.90
37896;DHT22;23733;53.254;10.430;2023-07-31T09:31:40;16.70;99.90
37896;DHT22;23733;53.254;10.430;2023-07-31T09:34:07;16.70;99.90
37896;DHT22;23733;53.254;10.430;2023-07-31T09:36:49;16.70;99.90
37896;DHT22;23733;53.254;10.430;2023-07-31T09:39:16;16.70;99.90
37896;DHT22;23733;53.254;10.430;2023-07-31T09:41:44;16.80;99.90
37896;DHT22;23733;53.254;10.430;2023-07-31T09:44:11;16.80;99.90
37896;DHT22;23733;53.254;10.430;2023-07-31T09:46:37;16.80;99.90
37896;DHT22;23733;53.254;10.430;2023-07-31T09:49:11;16.80;99.90
37896;DHT22;23733;53.254;10.430;2023-07-31T09:51:38;16.80;99.90
37896;DHT22;23733;53.254;10.430;2023-07-31T09:54:11;16.80;99.90
37896;DHT22;23733;53.254;10.430;2023-07-31T09:56:42;16.90;99.90
37896;DHT22;23733;53.254;10.430;2023-07-31T09:59:11;16.90;99.90
37896;DHT22;23733;53.254;10.430;2023-07-31T10:01:38;16.80;99.90
37896;DHT22;23733;53.254;10.430;2023-07-31T10:04:05;16.90;99.90
37896;DHT22;23733;53.254;10.430;2023-07-31T10:06:34;16.90;99.90
37896;DHT22;23733;53.254;10.430;2023-07-31T10:09:05;17.00;99.90
37896;DHT22;23733;53.254;10.430;2023-07-31T10:11:43;16.90;99.90
37896;DHT22;23733;53.254;10.430;2023-07-31T10:14:12;16.90;99.90
37896;DHT22;23733;53.254;10.430;2023-07-31T10:16:39;16.90;99.90
37896;DHT22;23733;53.254;10.430;2023-07-31T10:19:06;17.00;99.90
37896;DHT22;23733;53.254;10.430;2023-07-31T11:47:52;17.10;99.90
37896;DHT22;23733;53.254;10.430;2023-07-31T11:50:19;17.80;99.90
37896;DHT22;23733;53.254;10.430;2023-07-31T11:52:46;17.70;99.90
37896;DHT22;23733;53.254;10.430;2023-07-31T11:55:14;17.80;99.90
37896;DHT22;23733;53.254;10.430;2023-07-31T11:57:43;17.80;99.90
37896;DHT22;23733;53.254;10.430;2023-07-31T12:00:10;17.80;99.90
37896;DHT22;23733;53.254;10.430;2023-07-31T12:02:37;17.80;99.90
37896;DHT22;23733;53.254;10.430;2023-07-31T12:05:15;17.80;99.90
37896;DHT22;23733;53.254;10.430;2023-07-31T12:07:45;17.80;99.90
37896;DHT22;23733;53.254;10.430;2023-07-31T12:10:21;17.80;99.90
37896;DHT22;23733;53.254;10.430;2023-07-31T12:12:59;17.80;99.90
37896;DHT22;23733;53.254;10.430;2023-07-31T14:44:45;17.80;99.90
37896;DHT22;23733;53.254;10.430;2023-07-31T14:47:12;17.90;99.90
37896;DHT22;23733;53.254;10.430;2023-07-31T15:18:57;17.90;99.90
37896;DHT22;23733;53.254;10.430;2023-07-31T16:54:05;18.00;99.90
37896;DHT22;23733;53.254;10.430;2023-07-31T16:56:31;18.10;99.90
37896;DHT22;23733;53.254;10.430;2023-07-31T16:58:57;18.10;99.90
37896;DHT22;23733;53.254;10.430;2023-07-31T17:01:23;18.10;99.90
37896;DHT22;23733;53.254;10.430;2023-07-31T17:03:56;18.10;99.90
37896;DHT22;23733;53.254;10.430;2023-07-31T17:06:23;18.00;99.90
37896;DHT22;23733;53.254;10.430;2023-07-31T17:08:49;18.10;99.90
37896;DHT22;23733;53.254;10.430;2023-07-31T17:11:15;18.10;99.90
37896;DHT22;23733;53.254;10.430;2023-07-31T17:13:40;18.10;99.90
37896;DHT22;23733;53.254;10.430;2023-07-31T17:16:06;18.00;99.90
37896;DHT22;23733;53.254;10.430;2023-07-31T17:18:32;18.10;99.90
37896;DHT22;23733;53.254;10.430;2023-07-31T17:20:58;18.10;99.90
37896;DHT22;23733;53.254;10.430;2023-07-31T17:23:24;18.00;99.90
37896;DHT22;23733;53.254;10.430;2023-07-31T17:25:50;18.00;99.90
37896;DHT22;23733;53.254;10.430;2023-07-31T17:28:16;18.00;99.90
37896;DHT22;23733;53.254;10.430;2023-07-31T17:30:42;18.00;99.90
37896;DHT22;23733;53.254;10.430;2023-07-31T17:33:08;18.00;99.90
37896;DHT22;23733;53.254;10.430;2023-07-31T17:35:34;18.00;99.90
37896;DHT22;23733;53.254;10.430;2023-07-31T17:38:00;17.90;99.90
37896;DHT22;23733;53.254;10.430;2023-07-31T17:40:27;18.00;99.90
37896;DHT22;23733;53.254;10.430;2023-07-31T17:42:53;17.90;99.90
37896;DHT22;23733;53.254;10.430;2023-07-31T17:45:18;18.00;99.90
37896;DHT22;23733;53.254;10.430;2023-07-31T17:47:47;17.90;99.90
37896;DHT22;23733;53.254;10.430;2023-07-31T17:50:13;17.90;99.90
37896;DHT22;23733;53.254;10.430;2023-07-31T17:52:39;17.80;99.90
37896;DHT22;23733;53.254;10.430;2023-07-31T17:55:05;17.80;99.90
37896;DHT22;23733;53.254;10.430;2023-07-31T18:46:23;17.80;99.90
37896;DHT22;23733;53.254;10.430;2023-07-31T18:48:49;17.90;99.90
37896;DHT22;23733;53.254;10.430;2023-07-31T18:51:15;17.90;99.90
37896;DHT22;23733;53.254;10.430;2023-07-31T18:53:41;17.90;99.90
